Station BLIF1 - 8720233 - Blount Island Command, St Johns River, FL Image indicating link to RSS feed of recent meteorological observations for station BLIF1


Conditions at BLIF1 as of
(5:00 pm EDT)
2100 GMT on 09/06/2026:
     

Click on the graph icon in the table below to see a time series plot of the last five days of that observation.

5-day plot - Wind Direction Wind Direction (WDIR):SSW ( 210 deg true )
5-day plot - Wind Speed Wind Speed (WSPD): 6.0 kts
5-day plot - Wind Gust Wind Gust (GST): 8.9 kts
5-day plot - Atmospheric Pressure Atmospheric Pressure (PRES):29.84 in
5-day plot - Pressure Tendency Pressure Tendency (PTDY):-0.04 in ( Falling )
5-day plot - Air Temperature Air Temperature (ATMP): 79.7 °F
5-day plot - Dew Point Dew Point (DEWP): 76.1 °F
5-day plot - Visibility Visibility (VIS): 5.9 nmi
5-day plot - Heat Index Heat Index (HEAT): 84.7 °F
5-day plot - Wind Speed at 10 Meters Wind Speed at 10 meters (WSPD10M): 5.8 kts
5-day plot - Wind Speed at 20 Meters Wind Speed at 20 meters (WSPD20M): 7.8 kts
5-day plot -  Wind Speed, Wind Gust and Atmospheric Pressure Combined plot of Wind Speed, Gust, and Air Pressure
NOS Water Level Observation Network Water Level
Previous observations
TIME
(EDT)
5-day plot - Wind Direction
WDIR
 
5-day plot - Wind Speed
WSPD
kts
5-day plot - Wind Gust
GST
kts
5-day plot - Wave Height
WVHT
ft
5-day plot - Dominant Wave Period
DPD
sec
5-day plot - Average Wave Period
APD
sec
5-day plot - Mean Wave Direction
MWD
 
5-day plot - Atmospheric Pressure
PRES
in
5-day plot - Pressure Tendency
PTDY
in
5-day plot - Air Temperature
ATMP
°F
5-day plot - Water Temperature
WTMP
°F
5-day plot - Dew Point
DEWP
°F
5-day plot - Salinity
SAL
psu
5-day plot - Visibility
VIS
nmi
5-day plot - Tide (above MLLW)
TIDE
ft
2026-09-06 04:54 pmSSW 8.0 8.9----29.83- 79.7- 76.3- 5.9-
2026-09-06 04:48 pm S 7.0 8.9----29.83- 79.5- 75.6- 5.9-
2026-09-06 04:42 pm S 7.0 8.0----29.83- 80.2- 76.6- 5.9-
2026-09-06 04:36 pmSSW 6.0 12.0----29.84- 80.1- 76.5- 5.9-
2026-09-06 04:30 pmSSW 9.9 12.0----29.83- 80.1- 76.3- 5.9-
2026-09-06 04:24 pm S 8.0 8.9----29.83- 80.4- 76.5- 5.9-
2026-09-06 04:18 pmSSW 8.0 9.9----29.83----- 5.9-
2026-09-06 04:12 pmSSW 8.9 11.1----29.84----- 5.9-
2026-09-06 04:06 pm S 8.9 11.1----29.85----- 5.9-
2026-09-06 04:00 pmSSW 8.9 12.0----29.86-0.02 83.7- 74.7- 5.9-
2026-09-06 03:54 pm S 7.0 8.0----29.85- 84.0- 74.1- 5.9-
2026-09-06 03:48 pmSSW 5.1 6.0----29.85- 83.1- 74.8- 5.9-
2026-09-06 03:42 pm SE 4.1 5.1----29.86- 82.9- 75.2- 5.9-
2026-09-06 03:36 pm NE 1.9 5.1----29.85- 82.6- 74.1- 5.9-
2026-09-06 03:30 pmESE 6.0 9.9----29.85- 82.2- 72.5- 5.9-
2026-09-06 03:24 pmENE 1.9 8.0----29.86- 81.3- 74.1- 5.9-
2026-09-06 03:18 pm E 7.0 9.9----29.87----- 5.9-
2026-09-06 03:12 pmNNE 8.9 11.1----29.85----- 4.9-
2026-09-06 03:06 pm N 9.9 15.0----29.85----- 2.2-
2026-09-06 03:00 pm N 9.9 19.0----29.85-0.05 86.4- 73.9- 5.9-
2026-09-06 02:54 pmNNE 17.1 20.0----29.86- 83.8- 72.1- 5.9-
2026-09-06 02:48 pmNNE 17.1 24.1----29.87- 85.5- 74.1- 5.9-
2026-09-06 02:42 pm NE 13.0 17.1----29.87- 88.0- 71.6- 5.9-
2026-09-06 02:36 pm NE 12.0 20.0----29.87- 85.8- 76.8- 5.9-
2026-09-06 02:30 pm NE 13.0 15.9----29.87- 89.2- 79.3- 5.9-
2026-09-06 02:24 pmESE 1.9 2.9----29.87- 90.7- 76.8- 5.9-
2026-09-06 02:18 pm- 0.0 2.9----29.87----- 5.9-
2026-09-06 02:12 pm SW 2.9 5.1----29.87----- 5.9-
2026-09-06 02:06 pmWSW 5.1 8.9----29.87----- 5.9-
2026-09-06 02:00 pmWSW 5.1 11.1----29.88-0.04 88.5- 77.7- 5.9-
2026-09-06 01:54 pm SW 9.9 12.0----29.87- 89.4- 77.2- 4.9-
2026-09-06 01:48 pm SW 8.0 8.9----29.87----- 5.9-
2026-09-06 01:42 pm SW 6.0 6.0----29.88----- 5.9-
2026-09-06 01:36 pm SW 5.1 6.0----29.88----- 5.9-
2026-09-06 01:30 pm SW 4.1 8.0----29.88- 91.2- 78.3- 5.9-
2026-09-06 01:24 pm SW 7.0 8.0----29.88- 91.4- 77.9- 5.9-
2026-09-06 01:18 pm SW 4.1 5.1----29.88----- 5.9-
2026-09-06 01:12 pm SW 6.0 7.0----29.89----- 5.9-
2026-09-06 01:06 pmWSW 6.0 7.0----29.89----- 5.9-
2026-09-06 01:00 pm SW 5.1 6.0----29.88-0.02 91.4- 78.4- 5.9-
2026-09-06 12:54 pm W 4.1 6.0----29.89- 91.2- 77.4- 5.9-
2026-09-06 12:48 pmNNE 1.9 7.0----29.89- 91.6- 77.0- 5.9-
2026-09-06 12:42 pmWSW 6.0 8.9----29.89- 90.7- 78.6- 5.9-
2026-09-06 12:36 pm SW 6.0 7.0----29.90- 89.4- 78.8- 5.9-
2026-09-06 12:30 pm W 2.9 6.0----29.90- 90.7- 77.2- 5.9-
2026-09-06 12:24 pmWSW 6.0 8.9----29.90- 90.3- 78.3- 5.9-
2026-09-06 12:18 pmWNW 2.9 8.9----29.90----- 5.9-
2026-09-06 12:12 pm SW 7.0 8.9----29.90----- 5.9-
2026-09-06 12:06 pmWSW 6.0 7.0----29.91----- 5.9-
2026-09-06 12:00 pm SW 5.1 7.0----29.91-0.01 89.1- 79.2- 5.9-
2026-09-06 11:54 am SW 7.0 8.9----29.91- 88.7- 78.8- 5.9-
2026-09-06 11:48 am SW 8.9 8.9----29.91- 88.5- 79.0- 5.9-
2026-09-06 11:42 am SW 8.0 8.9----29.91- 88.2- 78.1- 5.9-
2026-09-06 11:36 am SW 7.0 8.0----29.91- 88.2- 78.3- 5.9-
2026-09-06 11:30 amWSW 7.0 8.0----29.92- 88.2- 78.3- 5.9-
2026-09-06 11:24 am W 6.0 7.0----29.91- 89.4- 78.1- 5.9-
2026-09-06 11:18 am W 4.1 6.0----29.91----- 5.9-
2026-09-06 11:12 am W 4.1 7.0----29.91----- 5.9-
2026-09-06 11:06 am SW 5.1 6.0----29.91----- 5.9-
2026-09-06 11:00 am SW 4.1 7.0----29.91+0.00 86.5- 79.2- 5.9-
2026-09-06 10:54 am SW 6.0 7.0----29.91- 86.4- 79.0- 5.9-
2026-09-06 10:48 amWSW 6.0 8.0----29.91- 86.4- 78.6- 5.9-
2026-09-06 10:42 am SW 6.0 7.0----29.91- 86.0- 78.8- 5.9-
2026-09-06 10:36 am SW 6.0 7.0----29.91- 85.6- 78.8- 5.9-
2026-09-06 10:30 amWSW 6.0 7.0----29.91- 86.0- 78.6- 5.9-
2026-09-06 10:24 amWSW 4.1 6.0----29.91- 86.9- 77.9- 5.9-
2026-09-06 10:18 am W 5.1 7.0----29.91----- 5.9-
2026-09-06 10:12 am W 5.1 7.0----29.91----- 5.9-
2026-09-06 10:06 am W 5.1 7.0----29.91----- 5.9-
2026-09-06 10:00 am W 5.1 9.9----29.91+0.01 85.6- 77.7- 5.9-
2026-09-06 09:54 am W 5.1 8.9----29.90- 86.0- 78.3- 5.9-
2026-09-06 09:48 amWSW 8.0 9.9----29.91----- 5.9-
2026-09-06 09:42 amWSW 5.1 9.9----29.91----- 5.9-
2026-09-06 09:36 amWSW 6.0 8.9----29.91----- 5.9-
2026-09-06 09:30 amWSW 5.1 8.9----29.91- 84.6- 77.7- 5.9-
2026-09-06 09:24 am W 5.1 8.0----29.91- 84.4- 77.7- 5.9-
2026-09-06 09:18 am W 6.0 8.9----29.91----- 5.9-
2026-09-06 09:12 amWSW 6.0 8.9----29.91----- 5.9-
2026-09-06 09:06 amWSW 5.1 9.9----29.91----- 5.9-
2026-09-06 09:00 amWSW 6.0 11.1----29.91+0.04 82.4- 77.4- 5.9-
2026-09-06 08:54 amWSW 6.0 8.9----29.91- 81.9- 77.0- 5.9-
2026-09-06 08:48 amWSW 7.0 8.0----29.91----- 5.9-
2026-09-06 08:42 am W 5.1 8.9----29.91----- 5.9-
2026-09-06 08:36 am W 6.0 8.9----29.91----- 5.9-
2026-09-06 08:30 am W 5.1 8.0----29.91- 81.1- 76.5- 5.9-
2026-09-06 08:24 am W 5.1 8.0----29.91- 80.8- 76.3- 5.9-
2026-09-06 08:18 am W 6.0 8.9----29.91----- 5.9-
2026-09-06 08:12 am W 6.0 8.0----29.90----- 5.9-
2026-09-06 08:06 am W 7.0 8.9----29.90----- 5.9-
2026-09-06 08:00 am W 4.1 8.0----29.91+0.03 80.4- 76.6- 5.9-
2026-09-06 07:54 am W 5.1 8.0----29.91- 80.2- 76.5- 5.9-
2026-09-06 07:48 amWNW 2.9 4.1----29.91----- 5.9-
2026-09-06 07:42 am W 1.9 2.9----29.91----- 5.9-
2026-09-06 07:36 am W 1.0 2.9----29.91----- 5.9-
2026-09-06 07:30 am W 2.9 5.1----29.91- 80.4- 76.5- 5.9-
2026-09-06 07:24 am W 4.1 5.1----29.91- 80.4- 76.5- 5.9-
2026-09-06 07:18 amWSW 4.1 6.0----29.91----- 5.9-
2026-09-06 07:12 am W 2.9 6.0----29.90----- 5.9-
2026-09-06 07:06 amWSW 5.1 7.0----29.90----- 5.9-
2026-09-06 07:00 amWSW 4.1 6.0----29.89+0.02 80.6- 76.5- 5.9-
2026-09-06 06:54 amWSW 5.1 7.0----29.88- 80.8- 76.6- 5.9-
2026-09-06 06:48 am W 6.0 7.0----29.89- 80.6- 76.3- 5.9-
2026-09-06 06:42 am W 6.0 8.0----29.88- 80.6- 76.3- 5.9-
2026-09-06 06:36 am W 5.1 8.0----29.88- 80.6- 76.3- 5.9-
2026-09-06 06:30 am W 5.1 8.0----29.88- 80.8- 76.5- 5.9-
2026-09-06 06:24 am W 6.0 9.9----29.88- 80.8- 76.5- 5.9-
2026-09-06 06:18 am W 5.1 8.9----29.88----- 5.9-
2026-09-06 06:12 amWSW 6.0 9.9----29.88----- 5.9-
2026-09-06 06:06 amWSW 6.0 8.9----29.87----- 5.9-
2026-09-06 06:00 am W 5.1 8.9----29.88+0.01 81.0- 76.6- 5.9-
2026-09-06 05:54 am W 6.0 8.9----29.88- 80.8- 76.6- 5.9-
2026-09-06 05:48 am W 5.1 8.0----29.88- 81.0- 76.8- 5.9-
2026-09-06 05:42 am W 6.0 8.0----29.87- 81.0- 76.6- 5.9-
2026-09-06 05:36 am W 5.1 9.9----29.87- 81.1- 76.8- 5.9-
2026-09-06 05:30 am W 6.0 8.9----29.87- 81.1- 76.8- 5.9-
2026-09-06 05:24 am W 6.0 8.0----29.87- 81.1- 76.6- 5.9-
2026-09-06 05:18 am W 8.0 9.9----29.87----- 5.9-
2026-09-06 05:12 am W 7.0 8.9----29.87----- 5.9-
2026-09-06 05:06 am W 5.1 6.0----29.88----- 5.9-
2026-09-06 05:00 am W 4.1 8.0----29.87-0.01 81.5- 76.8- 5.9-
2026-09-06 04:54 am W 5.1 8.0----29.87- 81.5- 76.6- 5.9-
2026-09-06 04:48 am W 5.1 7.0----29.87- 81.5- 76.6- 5.9-
2026-09-06 04:42 am W 5.1 11.1----29.87- 81.7- 76.8- 5.9-
2026-09-06 04:36 am W 4.1 8.9----29.87- 81.7- 76.8- 5.9-
2026-09-06 04:30 am W 5.1 8.9----29.87- 81.9- 77.0- 5.9-
2026-09-06 04:24 am W 5.1 8.9----29.87- 81.9- 77.0- 5.9-
2026-09-06 04:18 am W 7.0 9.9----29.86----- 5.9-
2026-09-06 04:12 am W 6.0 8.0----29.86----- 5.9-
2026-09-06 04:06 am W 5.1 8.0----29.87----- 5.9-
2026-09-06 04:00 amWSW 6.0 9.9----29.87-0.01 82.0- 77.5- 5.9-
2026-09-06 03:54 amWSW 8.0 9.9----29.87- 82.2- 77.7- 5.9-
2026-09-06 03:48 amWSW 5.1 8.0----29.87- 82.0- 77.0- 5.9-
2026-09-06 03:42 amWSW 5.1 8.0----29.87- 82.0- 77.0- 5.9-
2026-09-06 03:36 amWSW 6.0 8.9----29.87- 82.2- 77.2- 5.9-
2026-09-06 03:30 am W 5.1 7.0----29.87- 82.0- 76.8- 5.9-
2026-09-06 03:24 am W 6.0 8.9----29.87- 82.2- 76.8- 5.9-
2026-09-06 03:18 am W 7.0 11.1----29.87----- 5.9-
2026-09-06 03:12 am W 6.0 9.9----29.87----- 5.9-
2026-09-06 03:06 am W 8.0 8.9----29.87----- 5.9-
2026-09-06 03:00 am W 7.0 9.9----29.87-0.04 82.4- 77.0- 5.9-
2026-09-06 02:54 amWSW 6.0 8.9----29.87- 82.4- 77.0- 5.9-
2026-09-06 02:48 amWSW 7.0 8.9----29.87- 82.2- 77.0- 5.9-
2026-09-06 02:42 am W 6.0 8.9----29.87- 82.4- 77.2- 5.9-
2026-09-06 02:36 amWSW 7.0 8.9----29.87- 82.6- 77.7- 5.9-
2026-09-06 02:30 amWSW 8.0 9.9----29.88- 82.6- 77.5- 5.9-
2026-09-06 02:24 amWSW 5.1 8.0----29.88- 82.6- 77.5- 5.9-
2026-09-06 02:18 am W 5.1 8.0----29.88----- 5.9-
2026-09-06 02:12 am W 5.1 8.0----29.88----- 5.9-
2026-09-06 02:06 am W 5.1 7.0----29.88----- 5.9-
2026-09-06 02:00 am W 6.0 8.9----29.88-0.04 82.8- 77.4- 5.9-
2026-09-06 01:54 am W 6.0 11.1----29.88- 82.8- 77.5- 5.9-
2026-09-06 01:48 am W 5.1 7.0----29.88- 82.8- 77.9- 5.9-
2026-09-06 01:42 am W 5.1 7.0----29.89- 82.9- 78.6- 5.9-
2026-09-06 01:36 am W 4.1 8.0----29.89- 82.8- 78.6- 5.9-
2026-09-06 01:30 amWSW 5.1 7.0----29.89- 82.9- 79.3- 5.9-
2026-09-06 01:24 amWSW 5.1 6.0----29.89- 82.6- 79.2- 5.9-
2026-09-06 01:18 am SW 4.1 6.0----29.89----- 5.9-
2026-09-06 01:12 am SW 5.1 8.0----29.89----- 5.9-
2026-09-06 01:06 am SW 6.0 8.0----29.89----- 5.9-
2026-09-06 01:00 am SW 7.0 8.9----29.88-0.02 82.4- 79.7- 5.9-
2026-09-06 12:54 am SW 6.0 8.0----29.89- 82.0- 79.7- 5.9-
2026-09-06 12:48 amSSW 7.0 8.0----29.89- 81.9- 79.5- 5.9-
2026-09-06 12:42 amSSW 5.1 7.0----29.89- 81.7- 79.3- 5.9-
2026-09-06 12:36 amSSW 7.0 8.0----29.89- 81.7- 79.3- 5.9-
2026-09-06 12:30 amSSW 7.0 8.9----29.89- 81.7- 79.3- 5.9-
2026-09-06 12:24 amSSW 7.0 8.9----29.89- 81.7- 79.3- 5.9-
2026-09-06 12:18 amSSW 6.0 7.0----29.89----- 5.9-
2026-09-06 12:12 amSSW 6.0 7.0----29.90----- 5.9-
2026-09-06 12:06 amSSW 5.1 7.0----29.91----- 5.9-
2026-09-06 12:00 amSSW 6.0 8.0----29.90+0.01 81.7- 79.3- 5.9-
2026-09-05 11:54 pmSSW 6.0 7.0----29.91- 81.7- 79.2- 5.9-
2026-09-05 11:48 pmSSW 6.0 7.0----29.91- 81.7- 79.2- 5.9-
2026-09-05 11:42 pmSSW 5.1 6.0----29.91- 81.7- 79.0- 5.9-
2026-09-05 11:36 pm SW 5.1 7.0----29.91- 81.7- 79.0- 5.9-
2026-09-05 11:30 pmSSW 6.0 8.0----29.91- 81.7- 79.0- 5.9-
2026-09-05 11:24 pmSSW 6.0 7.0----29.91- 81.9- 79.0- 5.9-
2026-09-05 11:18 pm-------29.91- 81.9- 79.0- 5.9-
2026-09-05 11:12 pm-------29.91- 81.9- 78.8- 5.9-
2026-09-05 11:06 pm-------29.91- 81.9- 78.8- 5.9-
2026-09-05 11:00 pm SW 7.0 8.0----29.92+0.05 82.0- 78.8- 5.9-
2026-09-05 10:54 pmSSW 5.1 8.0----29.91- 82.0- 78.8- 5.9-
2026-09-05 10:48 pmSSW 7.0 8.9----29.92- 82.0- 78.8- 5.9-
2026-09-05 10:42 pmSSW 7.0 8.9----29.92- 82.0- 78.6- 5.9-
2026-09-05 10:36 pmSSW 6.0 8.9----29.92- 82.0- 78.4- 5.9-
2026-09-05 10:30 pmSSW 7.0 11.1----29.91- 82.0- 78.3- 5.9-
2026-09-05 10:24 pmSSW 8.9 9.9----29.91- 82.2- 78.3- 5.9-
2026-09-05 10:18 pmSSW 9.9 12.0----29.91----- 5.9-
2026-09-05 10:12 pmSSW 8.9 11.1----29.91----- 5.9-
2026-09-05 10:06 pmSSW 8.0 8.9----29.91----- 5.9-
2026-09-05 10:00 pmSSW 8.0 9.9----29.91+0.04 82.6- 77.7- 5.9-
2026-09-05 09:54 pmSSW 6.0 8.9----29.91- 82.6- 77.5- 5.9-
2026-09-05 09:48 pmSSW 8.9 11.1----29.90- 82.8- 77.5- 5.9-
2026-09-05 09:42 pmSSW 8.9 9.9----29.90- 82.8- 77.5- 5.9-
2026-09-05 09:36 pmSSW 7.0 8.9----29.90- 82.8- 77.4- 5.9-
2026-09-05 09:30 pmSSW 7.0 8.9----29.89- 82.8- 77.4- 5.9-
2026-09-05 09:24 pm S 7.0 8.9----29.89- 82.9- 77.2- 5.9-
2026-09-05 09:18 pm S 8.0 9.9----29.88----- 5.9-
2026-09-05 09:12 pm S 8.0 8.9----29.89----- 5.9-
2026-09-05 09:06 pm S 7.0 8.9----29.89----- 5.9-
2026-09-05 09:00 pmSSW 6.0 8.0----29.89+0.00 83.1- 77.5- 5.9-
2026-09-05 08:54 pm S 6.0 7.0----29.88- 83.1- 77.4- 5.9-
2026-09-05 08:48 pm S 6.0 8.0----29.88- 83.1- 77.0- 5.9-
2026-09-05 08:42 pm S 6.0 7.0----29.88- 83.3- 77.2- 5.9-
2026-09-05 08:36 pm S 5.1 6.0----29.88- 83.5- 77.4- 5.9-
2026-09-05 08:30 pm-------29.88- 83.3- 77.0- 5.9-
2026-09-05 08:24 pm-------29.87- 83.5- 77.0- 5.9-
2026-09-05 08:18 pm S 5.1 7.0----29.87----- 5.9-
2026-09-05 08:12 pmSSE 6.0 8.9----29.87----- 5.9-
2026-09-05 08:06 pm S 4.1 5.1----29.87----- 5.9-
2026-09-05 08:00 pmSSE 5.1 6.0----29.87-0.02 83.8- 76.8- 5.9-
2026-09-05 07:54 pm S 4.1 6.0----29.87- 84.0- 77.2- 5.9-
2026-09-05 07:48 pm SE 6.0 7.0----29.87----- 5.9-
2026-09-05 07:42 pmSSE 4.1 6.0----29.87----- 5.9-
2026-09-05 07:36 pm S 6.0 7.0----29.87----- 5.9-
2026-09-05 07:30 pm S 5.1 6.0----29.87- 84.7- 76.6- 5.9-
2026-09-05 07:24 pm S 5.1 6.0----29.87- 84.7- 76.6- 5.9-
2026-09-05 07:18 pm S 5.1 6.0----29.87----- 5.9-
2026-09-05 07:12 pm S 7.0 8.0----29.87----- 5.9-
2026-09-05 07:06 pm S 5.1 7.0----29.87----- 5.9-
2026-09-05 07:00 pm S 6.0 9.9----29.87-0.02 85.1- 76.5- 5.9-
2026-09-05 06:54 pm S 7.0 9.9----29.88- 84.7- 76.1- 5.9-
2026-09-05 06:48 pm S 8.0 9.9----29.88- 84.6- 75.9- 5.9-
2026-09-05 06:42 pm S 8.0 9.9----29.88- 84.7- 75.9- 5.9-
2026-09-05 06:36 pm S 7.0 8.0----29.88- 85.5- 75.9- 5.9-
2026-09-05 06:30 pmSSE 7.0 8.0----29.88- 85.1- 75.6- 5.9-
2026-09-05 06:24 pmSSE 6.0 8.0----29.88- 85.1- 75.7- 5.9-
2026-09-05 06:18 pmSSE 5.1 8.0----29.89----- 5.9-
2026-09-05 06:12 pm S 7.0 8.0----29.89----- 5.9-
2026-09-05 06:06 pm S 7.0 9.9----29.89----- 5.9-
2026-09-05 06:00 pm S 6.0 7.0----29.89-0.02 86.0- 76.3- 5.9-
2026-09-05 05:54 pm S 6.0 8.0----29.88- 86.0- 75.9- 5.9-
2026-09-05 05:48 pmSSE 8.0 9.9----29.88- 85.8- 75.6- 5.9-
2026-09-05 05:42 pm S 7.0 8.9----29.89- 86.5- 75.4- 5.9-
2026-09-05 05:36 pmSSE 7.0 8.0----29.89- 86.4- 75.4- 5.9-
2026-09-05 05:30 pm S 7.0 9.9----29.89- 86.7- 75.6- 5.9-
2026-09-05 05:24 pm S 8.0 9.9----29.89- 86.9- 75.7- 5.9-
2026-09-05 05:18 pm S 8.0 9.9----29.89----- 5.9-
2026-09-05 05:12 pm S 8.0 9.9----29.89----- 5.9-
2026-09-05 05:06 pm S 7.0 8.9----29.89----- 5.9-
2026-09-05 05:00 pmSSW 7.0 8.0----29.89- 87.3- 75.9- 5.9-
2026-09-05 04:54 pmSSW 6.0 8.0----29.89- 87.3- 76.1- 5.9-